Time;durP1;ratioP1;P1;durP2;ratioP2;P2;SDS_P1;SDS_P2;PMS_P1;PMS_P2;Temp;Humidity;BMP_temperature;BMP_pressure;BME280_temperature;BME280_humidity;BME280_pressure;Samples;Min_cycle;Max_cycle;Signal;HPM_P1;HPM_P2
2022/05/21 00:00:14;;;;;;;2.33;1.10;;;;;;;25.75;38.04;99764.47;5072006;28;20508;-73
2022/05/21 00:02:40;;;;;;;1.58;0.93;;;;;;;25.73;37.83;99772.50;5071506;28;20049;-73
2022/05/21 00:05:15;;;;;;;1.35;0.80;;;;;;;25.76;38.03;99776.50;5071681;28;20044;-73
2022/05/21 00:07:42;;;;;;;1.08;0.68;;;;;;;25.74;38.39;99778.91;5071729;28;20056;-73
2022/05/21 00:10:07;;;;;;;1.55;0.80;;;;;;;25.73;38.12;99771.69;5071381;28;20044;-73
2022/05/21 00:12:34;;;;;;;1.35;0.80;;;;;;;25.72;38.24;99775.69;5071348;28;20037;-73
2022/05/21 00:14:59;;;;;;;1.60;1.00;;;;;;;25.74;38.38;99781.69;5071488;28;20106;-73
2022/05/21 00:17:24;;;;;;;1.33;0.70;;;;;;;25.73;38.47;99789.31;5071420;28;20056;-73
2022/05/21 00:19:50;;;;;;;1.30;0.82;;;;;;;25.72;38.13;99792.50;5071514;28;20454;-73
2022/05/21 00:22:16;;;;;;;1.27;0.80;;;;;;;25.71;38.47;99786.06;5071282;28;20577;-73
2022/05/21 00:24:41;;;;;;;1.40;0.80;;;;;;;25.70;38.16;99778.84;5071470;28;20404;-73
2022/05/21 00:27:07;;;;;;;1.00;0.70;;;;;;;25.71;38.65;99776.84;5071472;28;20412;-73
2022/05/21 00:29:33;;;;;;;1.45;0.88;;;;;;;25.70;38.38;99787.25;5071143;28;20067;-73
2022/05/21 00:31:58;;;;;;;1.48;0.70;;;;;;;25.71;38.39;99780.44;5071018;28;20037;-73
2022/05/21 00:34:24;;;;;;;1.40;1.00;;;;;;;25.71;38.70;99788.06;5071357;28;20052;-73
2022/05/21 00:36:50;;;;;;;1.35;0.80;;;;;;;25.70;38.48;99776.06;5053027;28;20071;-73
2022/05/21 00:39:17;;;;;;;1.40;0.80;;;;;;;25.70;38.39;99795.66;5071231;28;20121;-73
2022/05/21 00:41:43;;;;;;;1.25;0.80;;;;;;;25.70;38.37;99790.06;5071079;28;20481;-73
2022/05/21 00:44:09;;;;;;;1.17;0.85;;;;;;;25.69;38.52;99794.06;5071147;28;20592;-73
2022/05/21 00:46:41;;;;;;;1.70;1.10;;;;;;;25.69;38.35;99794.06;5071015;28;20562;-73
2022/05/21 00:49:17;;;;;;;1.80;1.00;;;;;;;25.67;38.43;99793.66;5071099;28;20049;-73
2022/05/21 00:51:45;;;;;;;1.63;0.90;;;;;;;25.68;38.73;99795.28;5070034;28;20040;-73
2022/05/21 00:54:12;;;;;;;0.90;0.65;;;;;;;25.67;38.79;99793.66;5070918;28;20063;-73
2022/05/21 00:56:51;;;;;;;1.10;0.70;;;;;;;25.65;38.83;99798.88;5071078;28;20505;-73
2022/05/21 01:02:04;;;;;;;1.55;0.90;;;;;;;25.66;38.82;99785.69;5070833;28;20102;-73
2022/05/21 01:04:31;;;;;;;1.40;0.88;;;;;;;25.63;38.75;99787.25;5070953;28;20091;-73
2022/05/21 01:06:59;;;;;;;1.33;0.75;;;;;;;25.64;38.80;99786.03;5052910;28;20143;-71
2022/05/21 01:09:25;;;;;;;1.20;0.80;;;;;;;25.64;38.78;99790.84;5070651;28;20090;-71
2022/05/21 01:11:50;;;;;;;1.40;0.88;;;;;;;25.63;38.63;99784.44;5052244;28;20094;-70
2022/05/21 01:14:20;;;;;;;1.33;0.80;;;;;;;25.62;38.68;99794.06;5070841;28;20040;-70
2022/05/21 01:16:46;;;;;;;1.48;0.95;;;;;;;25.63;38.93;99795.66;5070495;28;20338;-71
2022/05/21 01:19:12;;;;;;;1.48;0.90;;;;;;;25.61;38.94;99783.25;5070546;28;20085;-70
2022/05/21 01:21:38;;;;;;;1.40;0.80;;;;;;;25.63;38.79;99781.66;5070382;28;20071;-70
2022/05/21 01:24:05;;;;;;;1.33;0.80;;;;;;;25.61;39.02;99786.84;5070455;28;20117;-70
2022/05/21 01:26:33;;;;;;;0.82;0.70;;;;;;;25.60;39.03;99785.25;5070452;28;20420;-70
2022/05/21 01:28:59;;;;;;;1.65;0.80;;;;;;;25.62;39.08;99787.66;5070319;28;20111;-70
2022/05/21 01:31:25;;;;;;;1.52;0.90;;;;;;;25.61;38.77;99788.84;5070125;28;20562;-70
2022/05/21 01:33:50;;;;;;;1.27;0.80;;;;;;;25.60;39.03;99782.47;5070419;28;20048;-71
2022/05/21 01:36:17;;;;;;;1.00;0.73;;;;;;;25.61;38.71;99786.84;5070420;28;20454;-73
2022/05/21 01:38:43;;;;;;;1.20;0.82;;;;;;;25.59;38.88;99780.06;5070561;28;20048;-70
2022/05/21 01:41:09;;;;;;;1.27;0.80;;;;;;;25.59;39.26;99786.47;5070259;28;20423;-71
2022/05/21 01:46:20;;;;;;;1.58;0.90;;;;;;;25.58;39.12;99775.66;5070383;28;20572;-71
2022/05/21 01:48:46;;;;;;;1.33;0.80;;;;;;;25.59;39.27;99777.25;5070123;28;20373;-71
2022/05/21 01:51:12;;;;;;;1.40;0.90;;;;;;;25.60;39.18;99774.06;5051716;28;20040;-70
2022/05/21 01:53:39;;;;;;;1.48;0.90;;;;;;;25.57;39.07;99774.84;5070225;28;20052;-70
2022/05/21 01:56:06;;;;;;;1.00;0.70;;;;;;;25.56;39.25;99776.03;5070387;28;20048;-71
2022/05/21 01:58:32;;;;;;;1.25;0.80;;;;;;;25.57;39.28;99777.63;5071471;28;20044;-70
2022/05/21 02:00:58;;;;;;;1.23;0.85;;;;;;;25.56;39.08;99784.44;5075603;28;20413;-70
2022/05/21 02:03:24;;;;;;;1.30;0.73;;;;;;;25.55;39.32;99784.84;5056923;28;20048;-70
2022/05/21 02:05:50;;;;;;;1.30;0.80;;;;;;;25.55;39.20;99780.03;5058268;28;20520;-73
2022/05/21 02:08:17;;;;;;;1.45;1.00;;;;;;;25.54;39.00;99775.66;5052037;28;20046;-73
2022/05/21 02:10:43;;;;;;;1.60;1.00;;;;;;;25.55;38.93;99776.44;5069407;28;20072;-73
2022/05/21 02:13:18;;;;;;;1.48;0.82;;;;;;;25.52;39.21;99778.06;5051377;28;20051;-73
2022/05/21 02:15:44;;;;;;;1.50;0.90;;;;;;;25.52;39.33;99778.06;5069508;28;20052;-73
2022/05/21 02:18:11;;;;;;;1.30;0.90;;;;;;;25.53;39.19;99782.44;5069400;28;20043;-73
2022/05/21 02:20:37;;;;;;;1.90;0.90;;;;;;;25.54;39.22;99781.25;5069698;28;20090;-73
2022/05/21 02:23:02;;;;;;;1.30;0.88;;;;;;;25.53;39.38;99779.66;5069554;28;20500;-73
2022/05/21 02:25:28;;;;;;;1.55;0.95;;;;;;;25.53;39.39;99779.66;5069622;28;20044;-73
2022/05/21 02:27:53;;;;;;;1.20;0.82;;;;;;;25.50;39.35;99778.47;5069511;28;20412;-73
2022/05/21 02:30:19;;;;;;;1.10;0.80;;;;;;;25.49;39.52;99767.63;5069163;28;20056;-73
2022/05/21 02:32:44;;;;;;;1.65;0.95;;;;;;;25.49;39.50;99774.03;5069248;28;20049;-73
2022/05/21 02:35:09;;;;;;;0.80;0.70;;;;;;;25.50;39.55;99781.25;5069404;28;20048;-73
2022/05/21 02:40:20;;;;;;;1.35;0.80;;;;;;;25.50;39.39;99774.81;5069737;28;20122;-73
2022/05/21 02:42:48;;;;;;;1.30;0.85;;;;;;;25.46;39.44;99774.84;5069171;28;20064;-73
2022/05/21 02:45:18;;;;;;;1.60;0.90;;;;;;;25.44;39.54;99771.66;5069361;28;20047;-73
2022/05/21 02:47:43;;;;;;;1.63;1.00;;;;;;;25.43;39.54;99770.03;5069379;28;20060;-73
2022/05/21 02:50:12;;;;;;;1.20;0.88;;;;;;;25.43;39.88;99769.22;5069122;28;20044;-73
2022/05/21 02:52:38;;;;;;;1.42;0.90;;;;;;;25.43;39.48;99772.00;5069009;28;20076;-73
2022/05/21 02:55:06;;;;;;;1.33;0.80;;;;;;;25.43;39.85;99772.00;5050908;28;20135;-73
2022/05/21 02:57:31;;;;;;;1.60;1.00;;;;;;;25.42;39.60;99778.81;5067984;28;20048;-73
2022/05/21 03:00:07;;;;;;;2.20;1.20;;;;;;;25.41;39.94;99772.41;5069438;28;20040;-73
2022/05/21 03:02:33;;;;;;;1.83;0.82;;;;;;;25.43;39.62;99766.41;5068960;28;20076;-73
2022/05/21 03:04:58;;;;;;;1.20;0.70;;;;;;;25.39;39.86;99762.81;5069159;28;20465;-73
2022/05/21 03:07:24;;;;;;;1.15;0.80;;;;;;;25.42;39.71;99759.22;5069172;28;20101;-73
2022/05/21 03:12:34;;;;;;;1.50;0.90;;;;;;;25.41;40.08;99769.63;5068997;28;20101;-73
2022/05/21 03:15:00;;;;;;;1.52;0.80;;;;;;;25.40;39.86;99759.63;5071279;28;20135;-73
2022/05/21 03:17:27;;;;;;;1.35;0.80;;;;;;;25.38;40.18;99761.22;5054543;28;20045;-73
2022/05/21 03:19:52;;;;;;;1.15;0.80;;;;;;;25.37;40.04;99763.22;5072769;28;20044;-73
2022/05/21 03:22:17;;;;;;;1.80;0.85;;;;;;;25.38;39.92;99764.03;5072234;28;20047;-73
2022/05/21 03:24:43;;;;;;;1.50;0.85;;;;;;;25.38;40.16;99759.22;5072533;28;20047;-73
2022/05/21 03:27:09;;;;;;;1.42;0.90;;;;;;;25.36;40.21;99758.84;5072305;28;20439;-73
2022/05/21 03:29:35;;;;;;;1.30;0.85;;;;;;;25.35;40.39;99764.81;5072166;28;20049;-73
2022/05/21 03:32:00;;;;;;;1.40;0.90;;;;;;;25.37;40.30;99759.63;5072055;28;20082;-73
2022/05/21 03:34:25;;;;;;;1.40;0.88;;;;;;;25.36;40.16;99756.03;5072417;28;20423;-73
2022/05/21 03:36:51;;;;;;;1.40;0.80;;;;;;;25.36;40.30;99753.22;5072397;28;20056;-73
2022/05/21 03:39:16;;;;;;;0.98;0.80;;;;;;;25.36;40.07;99761.63;5072249;28;20044;-73
2022/05/21 03:41:42;;;;;;;1.55;1.02;;;;;;;25.36;40.03;99760.81;5071981;28;20052;-73
2022/05/21 03:44:08;;;;;;;1.70;0.93;;;;;;;25.33;40.37;99765.22;5071954;28;20036;-73
2022/05/21 03:46:38;;;;;;;1.15;0.80;;;;;;;25.29;40.16;99766.38;5072027;28;20146;-73
2022/05/21 03:49:04;;;;;;;1.55;1.10;;;;;;;25.29;40.32;99763.59;5071828;28;20056;-73
2022/05/21 03:51:30;;;;;;;1.15;0.77;;;;;;;25.30;40.15;99768.81;5071516;28;20095;-73
2022/05/21 03:53:55;;;;;;;1.23;0.80;;;;;;;25.31;40.17;99775.22;5071965;28;20049;-73
2022/05/21 03:56:20;;;;;;;1.23;0.80;;;;;;;25.31;40.00;99772.41;5053095;28;20072;-73
2022/05/21 03:58:46;;;;;;;1.42;0.90;;;;;;;25.32;40.41;99780.41;5071788;28;20061;-73
2022/05/21 04:01:11;;;;;;;1.40;0.88;;;;;;;25.28;39.97;99778.78;5071897;28;20044;-73
2022/05/21 04:03:37;;;;;;;1.25;0.80;;;;;;;25.29;40.08;99774.78;5071551;28;20501;-73
2022/05/21 04:06:02;;;;;;;1.50;0.95;;;;;;;25.25;40.09;99774.78;5071669;28;20055;-73
2022/05/21 04:08:28;;;;;;;1.60;1.00;;;;;;;25.25;40.18;99781.19;5071714;28;20055;-73
2022/05/21 04:10:53;;;;;;;1.40;0.90;;;;;;;25.24;40.06;99778.81;5071279;28;20074;-73
2022/05/21 04:13:19;;;;;;;1.73;1.10;;;;;;;25.26;40.03;99782.00;5071275;28;20048;-73
2022/05/21 04:15:45;;;;;;;1.65;1.05;;;;;;;25.26;39.89;99776.41;5071379;28;20048;-73
2022/05/21 04:18:11;;;;;;;1.25;0.85;;;;;;;25.27;40.26;99782.78;5052758;28;20103;-73
2022/05/21 04:20:37;;;;;;;1.90;1.10;;;;;;;25.26;40.14;99787.59;5071252;28;20044;-73
2022/05/21 04:23:03;;;;;;;2.63;1.40;;;;;;;25.24;40.12;99788.00;5071090;28;20060;-73
2022/05/21 04:25:29;;;;;;;2.08;0.95;;;;;;;25.23;39.98;99778.00;5069883;28;20136;-73
2022/05/21 04:27:54;;;;;;;1.83;0.90;;;;;;;25.24;39.93;99784.41;5055597;28;20124;-73
2022/05/21 04:30:28;;;;;;;1.95;0.90;;;;;;;25.22;40.26;99784.00;5050944;28;20141;-73
2022/05/21 04:32:55;;;;;;;1.80;1.10;;;;;;;25.22;40.19;99782.00;5050971;28;20045;-73
2022/05/21 04:35:22;;;;;;;1.60;0.90;;;;;;;25.20;40.12;99784.38;5051191;28;20073;-73
2022/05/21 04:37:48;;;;;;;1.60;0.90;;;;;;;25.20;39.86;99781.56;5051054;28;20044;-73
2022/05/21 04:40:17;;;;;;;1.27;0.90;;;;;;;25.22;40.40;99775.59;5051170;28;20056;-73
2022/05/21 04:42:42;;;;;;;1.88;1.00;;;;;;;25.23;40.16;99782.81;5050741;28;20599;-73
2022/05/21 04:45:09;;;;;;;0.98;0.70;;;;;;;25.22;40.42;99778.41;5051018;28;20041;-73
2022/05/21 04:47:35;;;;;;;1.23;0.90;;;;;;;25.22;40.52;99782.00;5051209;28;20049;-73
2022/05/21 04:50:01;;;;;;;1.20;0.80;;;;;;;25.23;40.75;99782.81;5051120;28;20041;-73
2022/05/21 04:52:26;;;;;;;1.73;1.00;;;;;;;25.24;40.68;99778.81;5050540;28;20120;-73
2022/05/21 04:54:52;;;;;;;1.42;0.93;;;;;;;25.23;40.70;99780.81;5051087;28;20128;-73
2022/05/21 04:57:17;;;;;;;1.30;0.80;;;;;;;25.25;40.30;99786.00;5050981;28;20037;-73
2022/05/21 04:59:43;;;;;;;1.88;1.00;;;;;;;25.25;40.40;99778.41;5051033;28;20179;-73
2022/05/21 05:02:08;;;;;;;1.40;0.80;;;;;;;25.24;40.04;99776.78;5050919;28;20041;-73
2022/05/21 05:04:34;;;;;;;1.10;0.90;;;;;;;25.23;40.29;99769.59;5050763;28;20413;-73
2022/05/21 05:07:04;;;;;;;1.70;0.90;;;;;;;25.27;40.17;99774.41;5050778;28;20151;-73
2022/05/21 05:09:29;;;;;;;1.23;0.90;;;;;;;25.28;40.06;99770.38;5050607;28;20109;-73
2022/05/21 05:11:55;;;;;;;1.20;0.80;;;;;;;25.28;39.96;99773.19;5050397;28;20044;-73
2022/05/21 05:14:20;;;;;;;1.45;0.93;;;;;;;25.28;39.75;99765.59;5050557;28;20049;-73
2022/05/21 05:16:46;;;;;;;3.22;0.98;;;;;;;25.28;39.75;99770.38;5050501;28;20040;-73
2022/05/21 05:19:11;;;;;;;1.58;0.90;;;;;;;25.29;39.83;99770.03;5050605;28;20128;-73
2022/05/21 05:21:37;;;;;;;1.63;1.00;;;;;;;25.28;39.58;99773.19;5050476;28;20051;-73
2022/05/21 05:24:03;;;;;;;1.08;0.80;;;;;;;25.29;39.53;99767.22;5032164;28;20405;-73
2022/05/21 05:26:28;;;;;;;1.40;0.88;;;;;;;25.30;39.60;99765.22;5050590;28;20049;-73
2022/05/21 05:28:54;;;;;;;1.35;0.90;;;;;;;25.28;39.69;99760.00;5050339;28;20041;-73
2022/05/21 05:31:20;;;;;;;1.08;0.80;;;;;;;25.34;39.63;99760.41;5050099;28;20052;-73
2022/05/21 05:33:45;;;;;;;1.45;0.90;;;;;;;25.35;39.55;99762.00;5050395;28;20064;-73
2022/05/21 05:36:11;;;;;;;1.73;1.08;;;;;;;25.35;39.42;99760.00;5050454;28;20045;-73
2022/05/21 05:38:36;;;;;;;1.85;1.10;;;;;;;25.36;39.25;99769.19;5050066;28;20099;-73
2022/05/21 05:41:06;;;;;;;1.33;0.80;;;;;;;25.35;39.35;99768.41;5050338;28;20453;-73
2022/05/21 05:43:32;;;;;;;1.15;0.80;;;;;;;25.35;39.43;99765.59;5049970;28;20049;-73
2022/05/21 05:46:00;;;;;;;1.60;0.98;;;;;;;25.34;39.29;99757.59;5050271;28;20044;-73
2022/05/21 05:48:26;;;;;;;1.73;1.00;;;;;;;25.34;39.02;99752.81;5050186;28;20055;-73
2022/05/21 05:50:52;;;;;;;1.30;0.90;;;;;;;25.37;39.21;99754.03;5031743;28;20132;-73
2022/05/21 05:53:17;;;;;;;1.25;0.80;;;;;;;25.36;39.21;99758.84;5030593;28;20121;-73
2022/05/21 05:55:43;;;;;;;1.83;1.00;;;;;;;25.36;39.35;99755.19;5032236;28;20063;-73
2022/05/21 06:00:53;;;;;;;1.27;0.90;;;;;;;25.37;39.20;99759.63;5049963;28;20060;-73
2022/05/21 06:03:20;;;;;;;1.75;1.00;;;;;;;25.47;40.41;99758.84;5049505;28;20053;-73
2022/05/21 06:05:46;;;;;;;1.48;1.00;;;;;;;25.44;41.40;99752.03;5049886;28;20068;-73
2022/05/21 06:08:12;;;;;;;1.38;1.00;;;;;;;25.42;41.48;99757.22;5049756;28;20069;-73
2022/05/21 06:10:40;;;;;;;1.80;1.10;;;;;;;25.46;41.73;99754.44;5049464;28;20061;-73
2022/05/21 06:13:07;;;;;;;1.35;0.95;;;;;;;25.48;41.91;99755.63;5049324;28;20056;-73
2022/05/21 06:15:33;;;;;;;1.77;1.00;;;;;;;25.47;41.81;99756.81;5049744;28;20531;-73
2022/05/21 06:17:58;;;;;;;1.55;1.00;;;;;;;25.49;41.58;99759.22;5049444;28;20052;-73
2022/05/21 06:20:26;;;;;;;1.20;0.90;;;;;;;25.51;41.76;99760.44;5049512;28;20043;-73
2022/05/21 06:22:53;;;;;;;2.13;1.30;;;;;;;25.49;41.62;99762.81;5049132;28;20059;-73
2022/05/21 06:25:21;;;;;;;1.30;0.90;;;;;;;25.48;41.45;99755.63;5049551;28;20052;-74
2022/05/21 06:27:49;;;;;;;1.25;0.95;;;;;;;25.56;41.40;99755.63;5049520;28;20075;-74
2022/05/21 06:30:16;;;;;;;1.33;0.90;;;;;;;25.56;41.47;99750.03;5049310;28;20056;-73
2022/05/21 06:32:41;;;;;;;1.27;0.98;;;;;;;25.57;40.88;99758.03;5048917;28;20049;-73
2022/05/21 06:35:07;;;;;;;2.05;1.25;;;;;;;25.55;41.17;99754.84;5049514;28;20382;-73
2022/05/21 06:37:33;;;;;;;2.00;1.00;;;;;;;25.53;41.16;99758.03;5049467;28;20053;-73
2022/05/21 06:39:59;;;;;;;1.80;1.00;;;;;;;25.58;41.09;99754.06;5049163;28;20056;-73
2022/05/21 06:42:24;;;;;;;1.25;0.88;;;;;;;25.59;41.00;99750.03;5049050;28;20068;-73
2022/05/21 06:44:51;;;;;;;1.25;0.90;;;;;;;25.56;40.87;99744.44;5049257;28;20091;-73
2022/05/21 06:47:16;;;;;;;2.00;1.25;;;;;;;25.61;40.38;99750.44;5049445;28;20051;-73
2022/05/21 06:49:42;;;;;;;1.60;1.05;;;;;;;25.63;40.80;99741.63;5050969;28;20049;-73
2022/05/21 06:52:07;;;;;;;1.67;1.00;;;;;;;25.58;40.54;99731.66;5052522;28;20483;-73
2022/05/21 06:54:33;;;;;;;0.95;0.80;;;;;;;25.59;40.49;99740.84;5052803;28;20053;-73
2022/05/21 06:56:58;;;;;;;1.27;0.90;;;;;;;25.59;40.59;99738.03;5035019;28;20452;-74
2022/05/21 06:59:23;;;;;;;1.92;0.98;;;;;;;25.63;40.55;99733.22;5053139;28;20049;-73
2022/05/21 07:01:49;;;;;;;1.40;0.88;;;;;;;25.61;40.19;99733.63;5052836;28;20307;-73
2022/05/21 07:04:14;;;;;;;1.60;1.08;;;;;;;25.61;40.47;99735.63;5052414;28;20079;-73
2022/05/21 07:09:25;;;;;;;1.55;1.02;;;;;;;25.64;40.00;99734.81;5052903;28;20055;-73
2022/05/21 07:11:51;;;;;;;1.50;0.98;;;;;;;25.59;40.29;99729.63;5056246;28;20128;-73
2022/05/21 07:14:17;;;;;;;1.63;1.00;;;;;;;25.63;40.05;99731.22;5056105;28;20463;-73
2022/05/21 07:16:43;;;;;;;1.73;0.90;;;;;;;25.61;40.23;99725.22;5052589;28;20045;-73
2022/05/21 07:19:08;;;;;;;1.88;1.00;;;;;;;25.66;39.84;99721.25;5052470;28;20471;-73
2022/05/21 07:21:34;;;;;;;1.30;0.90;;;;;;;25.64;40.08;99724.41;5051781;28;20052;-73
2022/05/21 07:24:00;;;;;;;1.65;1.00;;;;;;;25.64;40.23;99723.63;5070872;28;20162;-73
2022/05/21 07:26:25;;;;;;;1.80;1.20;;;;;;;25.64;40.26;99723.63;5072262;28;20393;-73
2022/05/21 07:28:51;;;;;;;1.60;1.10;;;;;;;25.65;39.91;99714.84;5072359;28;20068;-73
2022/05/21 07:31:16;;;;;;;1.45;0.82;;;;;;;25.64;40.07;99718.00;5071881;28;20049;-74
2022/05/21 07:33:42;;;;;;;1.48;0.95;;;;;;;25.67;40.27;99712.44;5054061;28;20080;-73
2022/05/21 07:36:07;;;;;;;1.38;0.88;;;;;;;25.70;39.95;99710.81;5072113;28;20040;-73
2022/05/21 07:38:33;;;;;;;1.33;0.88;;;;;;;25.70;40.01;99706.00;5072333;28;20055;-74
2022/05/21 07:40:58;;;;;;;1.38;0.90;;;;;;;25.70;40.29;99696.81;5072205;28;20041;-74
2022/05/21 07:43:30;;;;;;;1.50;1.00;;;;;;;25.71;40.11;99699.19;5071981;28;20190;-74
2022/05/21 07:45:57;;;;;;;1.92;0.90;;;;;;;25.72;40.01;99700.84;5072057;28;20049;-73
2022/05/21 07:48:23;;;;;;;1.38;0.90;;;;;;;25.71;40.25;99688.00;5072071;28;20045;-73
2022/05/21 07:51:00;;;;;;;1.40;0.90;;;;;;;25.68;40.20;99688.00;5071697;28;20082;-70
2022/05/21 07:53:35;;;;;;;1.58;0.90;;;;;;;25.73;39.92;99696.84;5053657;28;20098;-70
2022/05/21 07:56:01;;;;;;;1.33;1.00;;;;;;;25.69;40.02;99682.00;5071971;28;20082;-70
2022/05/21 07:58:28;;;;;;;1.73;0.95;;;;;;;25.74;40.18;99681.63;5072137;28;20044;-70
2022/05/21 08:00:55;;;;;;;1.38;0.98;;;;;;;25.76;40.21;99687.63;5053764;28;20456;-70
2022/05/21 08:03:22;;;;;;;1.20;0.80;;;;;;;25.75;40.07;99679.63;5071592;28;20060;-70
2022/05/21 08:05:47;;;;;;;1.60;0.95;;;;;;;25.81;40.23;99675.22;5072125;28;20454;-70
2022/05/21 08:08:13;;;;;;;1.38;0.90;;;;;;;25.83;40.09;99677.63;5071981;28;20472;-70
2022/05/21 08:10:42;;;;;;;1.42;1.00;;;;;;;25.85;39.90;99672.41;5071391;28;20044;-73
2022/05/21 08:13:09;;;;;;;1.67;1.13;;;;;;;25.81;40.19;99660.41;5071332;28;20040;-73
2022/05/21 08:15:35;;;;;;;1.15;0.80;;;;;;;25.83;40.22;99653.19;5053723;28;20420;-73
2022/05/21 08:18:01;;;;;;;1.88;1.05;;;;;;;25.87;39.78;99658.81;5071692;28;20501;-73
2022/05/21 08:20:27;;;;;;;2.42;1.10;;;;;;;25.86;40.01;99659.97;5071483;28;20049;-73
2022/05/21 08:28:21;;;;;;;1.50;0.90;;;;;;;25.86;40.00;99645.97;5071806;28;20098;-73
2022/05/21 08:30:48;;;;;;;1.50;1.00;;;;;;;25.86;39.63;99644.00;5071036;28;20052;-74
2022/05/21 08:33:15;;;;;;;1.58;0.90;;;;;;;25.86;39.94;99646.78;5071290;28;20044;-74
2022/05/21 08:35:41;;;;;;;1.70;1.00;;;;;;;25.88;39.57;99640.78;5071517;28;20044;-74
2022/05/21 08:38:08;;;;;;;1.65;1.00;;;;;;;25.90;39.69;99639.16;5071403;28;20086;-74
2022/05/21 08:40:52;;;;;;;1.45;1.00;;;;;;;25.87;39.77;99625.16;5071445;28;20036;-73
2022/05/21 08:43:29;;;;;;;1.60;1.00;;;;;;;25.87;39.61;99630.78;5071142;28;20086;-73
2022/05/21 08:46:17;;;;;;;1.63;1.10;;;;;;;25.86;39.62;99627.19;5053245;28;20127;-73
2022/05/21 08:49:06;;;;;;;1.30;0.80;;;;;;;25.84;39.53;99620.34;5071113;28;20124;-73
2022/05/21 08:51:38;;;;;;;1.40;1.00;;;;;;;25.88;39.91;99621.16;5070091;28;20055;-74
2022/05/21 08:54:05;;;;;;;1.40;0.90;;;;;;;25.91;39.84;99611.94;5070902;28;20049;-74
2022/05/21 08:56:31;;;;;;;1.35;0.90;;;;;;;25.89;39.58;99611.53;5070911;28;20472;-74
2022/05/21 08:59:05;;;;;;;1.52;1.00;;;;;;;25.90;39.90;99610.34;5071090;28;20044;-74
2022/05/21 09:01:35;;;;;;;1.13;0.80;;;;;;;25.95;39.52;99610.72;5070877;28;20053;-74
2022/05/21 09:04:01;;;;;;;2.58;1.00;;;;;;;25.92;39.63;99599.50;5070552;28;20068;-74
2022/05/21 09:06:45;;;;;;;1.50;1.00;;;;;;;25.95;39.81;99598.72;5070694;28;20083;-74
2022/05/21 09:09:26;;;;;;;1.00;0.80;;;;;;;25.95;39.63;99602.31;5070641;28;20053;-74
2022/05/21 09:12:00;;;;;;;1.10;0.80;;;;;;;25.99;39.41;99589.06;5069831;28;20041;-74
2022/05/21 09:14:36;;;;;;;1.83;1.00;;;;;;;25.93;39.66;99593.53;5070682;28;20127;-74
2022/05/21 09:17:09;;;;;;;1.15;0.80;;;;;;;25.94;39.77;99592.31;5070619;28;20044;-74
2022/05/21 09:19:36;;;;;;;;;;;;;;;26.04;39.41;99583.06;5053110;28;20136;-70
2022/05/21 09:22:09;;;;;;;1.80;1.10;;;;;;;26.03;39.26;99587.06;5070580;28;19922;-70
2022/05/21 09:24:40;;;;;;;1.58;1.10;;;;;;;26.04;39.27;99585.06;5052360;28;20048;-73
2022/05/21 09:27:28;;;;;;;1.30;0.90;;;;;;;26.01;39.54;99580.28;5052515;28;20135;-74
2022/05/21 09:30:29;;;;;;;1.75;1.00;;;;;;;26.02;39.17;99579.06;5070201;28;20048;-74
2022/05/21 09:32:58;;;;;;;1.55;0.93;;;;;;;26.03;39.34;99584.25;5069181;28;20071;-74
2022/05/21 09:35:27;;;;;;;1.60;1.00;;;;;;;26.07;38.96;99578.63;5070315;28;20052;-74
2022/05/21 09:37:53;;;;;;;1.50;0.90;;;;;;;26.06;39.12;99571.44;5070426;28;20040;-73
2022/05/21 09:40:37;;;;;;;1.30;0.80;;;;;;;26.05;39.27;99569.84;5070301;28;20127;-73
2022/05/21 09:46:19;;;;;;;1.60;0.90;;;;;;;26.06;39.29;99563.81;5069118;28;20126;-73
2022/05/21 09:48:46;;;;;;;1.67;0.95;;;;;;;26.06;38.92;99560.22;5070025;28;20044;-74
2022/05/21 09:51:32;;;;;;;1.92;1.02;;;;;;;26.03;39.28;99555.44;5069764;28;20047;-73
2022/05/21 09:53:59;;;;;;;1.55;0.98;;;;;;;26.03;39.40;99550.63;5069843;28;20048;-73
2022/05/21 09:56:25;;;;;;;2.08;1.05;;;;;;;26.08;39.30;99557.03;5070167;28;20048;-73
2022/05/21 09:59:09;;;;;;;1.25;0.90;;;;;;;26.08;39.23;99551.44;5070193;28;20040;-73
2022/05/21 10:01:41;;;;;;;1.50;0.90;;;;;;;26.11;38.96;99545.00;5052222;28;20420;-73
2022/05/21 10:04:21;;;;;;;1.50;1.00;;;;;;;26.13;38.82;99534.16;5069662;28;20084;-73
2022/05/21 10:06:53;;;;;;;1.75;1.02;;;;;;;26.12;39.03;99536.16;5070039;28;20048;-73
2022/05/21 10:12:52;;;;;;;2.05;1.15;;;;;;;26.14;38.86;99530.94;5037954;28;20048;-73
2022/05/21 10:15:21;;;;;;;1.92;1.10;;;;;;;26.16;39.12;99533.34;5069736;28;20101;-74
2022/05/21 10:17:59;;;;;;;1.70;0.90;;;;;;;26.17;38.93;99521.72;5069702;28;20446;-74
2022/05/21 10:20:44;;;;;;;1.80;1.02;;;;;;;26.20;38.95;99518.09;5068680;28;20416;-74
2022/05/21 10:23:48;;;;;;;1.83;1.10;;;;;;;26.18;38.65;99522.53;5068624;28;20051;-74
2022/05/21 10:26:38;;;;;;;2.13;1.10;;;;;;;26.15;39.05;99514.91;5007604;28;21102;-73
2022/05/21 10:29:31;;;;;;;1.60;1.00;;;;;;;26.16;38.74;99522.94;5007513;28;20510;-73
2022/05/21 10:32:09;;;;;;;1.52;0.90;;;;;;;26.16;39.19;99519.34;5006935;28;20085;-74
2022/05/21 10:35:01;;;;;;;1.58;1.10;;;;;;;26.17;39.02;99520.94;5007589;28;20062;-74
2022/05/21 10:37:35;;;;;;;1.50;1.00;;;;;;;26.17;39.14;99513.31;5007517;28;20387;-73
2022/05/21 10:40:23;;;;;;;1.38;0.90;;;;;;;26.19;39.16;99513.69;5007557;28;20237;-73
2022/05/21 10:43:25;;;;;;;1.67;1.02;;;;;;;26.13;39.16;99504.13;4974906;28;20042;-73
2022/05/21 10:46:05;;;;;;;1.40;0.90;;;;;;;26.18;39.27;99502.91;5007542;28;20104;-74
2022/05/21 10:48:44;;;;;;;1.63;0.90;;;;;;;26.16;39.38;99500.50;5007476;28;20061;-74
2022/05/21 10:51:09;;;;;;;2.20;1.20;;;;;;;26.14;39.35;99494.50;5007042;28;20531;-74
2022/05/21 10:53:34;;;;;;;1.48;1.00;;;;;;;26.13;39.26;99489.31;5007148;28;20046;-73
2022/05/21 10:56:29;;;;;;;1.80;1.08;;;;;;;26.10;39.45;99490.94;5011247;28;20054;-73
2022/05/21 10:58:58;;;;;;;1.42;1.02;;;;;;;26.10;39.43;99488.13;5069391;28;20033;-73
2022/05/21 11:01:23;;;;;;;1.73;0.82;;;;;;;26.12;39.53;99479.31;5069331;28;20044;-73
2022/05/21 11:04:10;;;;;;;1.48;0.90;;;;;;;26.15;39.42;99473.69;5050963;28;20051;-74
2022/05/21 11:06:50;;;;;;;1.60;1.00;;;;;;;26.19;39.37;99479.25;5069185;28;20496;-74
2022/05/21 11:09:25;;;;;;;1.40;0.93;;;;;;;26.10;39.53;99471.31;5068921;28;20500;-73
2022/05/21 11:12:06;;;;;;;1.63;1.00;;;;;;;26.10;39.68;99476.13;5050614;28;20048;-73
2022/05/21 11:14:55;;;;;;;1.65;0.93;;;;;;;26.10;39.42;99476.91;5050829;28;20044;-73
2022/05/21 11:17:35;;;;;;;1.30;0.80;;;;;;;26.13;39.45;99476.09;5068768;28;20063;-74
2022/05/21 11:20:00;;;;;;;1.48;0.95;;;;;;;26.09;39.80;99464.09;5068904;28;20049;-73
2022/05/21 11:22:36;;;;;;;1.63;0.93;;;;;;;26.10;39.66;99462.91;5062918;28;20405;-73
2022/05/21 11:25:27;;;;;;;1.30;0.90;;;;;;;26.15;39.90;99459.66;5047457;28;20041;-73
2022/05/21 11:28:23;;;;;;;4.43;1.42;;;;;;;26.09;40.05;99447.28;5052190;28;20045;-72
2022/05/21 11:30:56;;;;;;;3.53;1.52;;;;;;;26.18;40.49;99453.22;5048853;28;20037;-73
2022/05/21 11:37:20;;;;;;;5.78;2.10;;;;;;;26.34;40.51;99441.50;5051096;28;19923;-72
2022/05/21 11:39:07;;;;;;;9.68;1.75;;;;;;;26.36;40.61;99450.28;5061808;28;20044;-72
2022/05/21 11:42:07;;;;;;;7.25;1.83;;;;;;;26.49;40.93;99442.22;5058585;28;20041;-71
2022/05/21 11:44:57;;;;;;;3.85;1.48;;;;;;;26.51;40.75;99437.00;5067522;28;20045;-65
2022/05/21 11:47:22;;;;;;;3.75;1.40;;;;;;;26.51;40.66;99431.41;5065805;28;20102;-64
2022/05/21 11:49:50;;;;;;;6.82;1.40;;;;;;;26.52;40.83;99436.59;5064225;28;20049;-65
2022/05/21 11:52:31;;;;;;;4.65;1.50;;;;;;;26.51;41.08;99428.59;5064249;28;20167;-64
2022/05/21 11:54:57;;;;;;;3.45;1.40;;;;;;;26.50;41.07;99424.97;5068248;28;20101;-65
2022/05/21 11:57:54;;;;;;;3.40;1.45;;;;;;;26.58;41.26;99429.31;5045699;28;20412;-65
2022/05/21 12:00:22;;;;;;;7.82;3.67;;;;;;;26.72;41.01;99421.97;5071916;28;20476;-65
2022/05/21 12:03:10;;;;;;;4.95;2.58;;;;;;;26.82;40.83;99421.09;5061068;28;20421;-65
2022/05/21 12:05:40;;;;;;;4.00;2.40;;;;;;;26.99;40.57;99419.28;5048807;28;20053;-64
2022/05/21 12:08:21;;;;;;;5.82;2.10;;;;;;;26.92;40.47;99406.13;5068777;28;20093;-63
2022/05/21 12:11:08;;;;;;;4.35;2.10;;;;;;;27.02;40.75;99413.66;5062738;28;20084;-65
2022/05/21 12:13:33;;;;;;;4.47;1.70;;;;;;;27.18;40.36;99415.13;5053484;28;20053;-65
2022/05/21 12:16:01;;;;;;;4.15;1.90;;;;;;;27.15;40.09;99405.53;5058264;28;20078;-64